Time;durP1;ratioP1;P1;durP2;ratioP2;P2;SDS_P1;SDS_P2;PMS_P1;PMS_P2;Temp;Humidity;BMP_temperature;BMP_pressure;BME280_temperature;BME280_humidity;BME280_pressure;Samples;Min_cycle;Max_cycle;Signal;HPM_P1;HPM_P2
2022/09/09 00:00:12;;;;;;;;;;;19.10;80.90;;;;;;5066417;28;19916;-67
2022/09/09 00:02:38;;;;;;;;;;;19.10;80.90;;;;;;5065990;28;20417;-66
2022/09/09 00:05:04;;;;;;;;;;;19.10;80.90;;;;;;5066263;28;19912;-66
2022/09/09 00:07:35;;;;;;;;;;;19.00;81.00;;;;;;5065011;28;20575;-66
2022/09/09 00:10:00;;;;;;;;;;;19.00;80.90;;;;;;5065731;28;20483;-66
2022/09/09 00:12:29;;;;;;;;;;;19.00;81.00;;;;;;5066128;28;19912;-66
2022/09/09 00:14:59;;;;;;;;;;;19.00;81.00;;;;;;5066302;28;20527;-67
2022/09/09 00:17:25;;;;;;;;;;;19.10;81.10;;;;;;5066360;28;19920;-67
2022/09/09 00:20:00;;;;;;;;;;;19.00;81.10;;;;;;5065446;28;19917;-66
2022/09/09 00:22:27;;;;;;;;;;;19.00;81.00;;;;;;5065409;28;20292;-66
2022/09/09 00:24:53;;;;;;;;;;;19.00;81.00;;;;;;5065354;28;19967;-66
2022/09/09 00:27:42;;;;;;;;;;;19.00;81.30;;;;;;5048289;28;19920;-66
2022/09/09 00:30:22;;;;;;;;;;;19.00;81.30;;;;;;5054092;28;19942;-66
2022/09/09 00:32:48;;;;;;;;;;;18.90;81.40;;;;;;5065575;28;20333;-66
2022/09/09 00:35:15;;;;;;;;;;;18.90;81.30;;;;;;5065588;28;20396;-66
2022/09/09 00:37:41;;;;;;;;;;;18.90;81.40;;;;;;5065858;28;20012;-66
2022/09/09 00:40:22;;;;;;;;;;;18.90;81.40;;;;;;5065326;28;19942;-66
2022/09/09 00:42:52;;;;;;;;;;;18.90;81.40;;;;;;5065238;28;20021;-66
2022/09/09 00:45:42;;;;;;;;;;;18.90;81.60;;;;;;5065440;28;19923;-66
2022/09/09 00:48:14;;;;;;;;;;;18.90;81.60;;;;;;5065942;28;19955;-66
2022/09/09 00:50:40;;;;;;;;;;;18.90;81.70;;;;;;5061124;28;19928;-66
2022/09/09 00:53:12;;;;;;;;;;;18.80;81.60;;;;;;5065512;28;19909;-66
2022/09/09 00:55:40;;;;;;;;;;;18.80;81.60;;;;;;5061546;28;19919;-66
2022/09/09 00:58:07;;;;;;;;;;;18.80;81.70;;;;;;5065516;28;19932;-66
2022/09/09 01:00:39;;;;;;;;;;;18.80;81.70;;;;;;5064364;28;19923;-66
2022/09/09 01:03:11;;;;;;;;;;;18.80;81.80;;;;;;5065237;28;20027;-66
2022/09/09 01:05:59;;;;;;;;;;;18.80;81.70;;;;;;5065294;28;20512;-66
2022/09/09 01:08:47;;;;;;;;;;;18.80;81.90;;;;;;5065263;28;19934;-66
2022/09/09 01:11:21;;;;;;;;;;;18.70;81.90;;;;;;5060483;28;20664;-66
2022/09/09 01:13:49;;;;;;;;;;;18.70;82.00;;;;;;5065309;28;19923;-66
2022/09/09 01:16:16;;;;;;;;;;;18.70;82.00;;;;;;5047173;28;19913;-66
2022/09/09 01:18:48;;;;;;;;;;;18.70;81.90;;;;;;5067969;28;19916;-66
2022/09/09 01:21:19;;;;;;;;;;;18.70;82.00;;;;;;5069501;28;20345;-66
2022/09/09 01:23:49;;;;;;;;;;;18.70;82.00;;;;;;5069723;28;20015;-66
2022/09/09 01:26:28;;;;;;;;;;;18.60;81.90;;;;;;5069816;28;19938;-66
2022/09/09 01:28:53;;;;;;;;;;;18.60;82.10;;;;;;5050771;28;19997;-66
2022/09/09 01:31:21;;;;;;;;;;;18.60;82.10;;;;;;5069416;28;20025;-66
2022/09/09 01:33:46;;;;;;;;;;;18.60;82.20;;;;;;5067456;28;20010;-66
2022/09/09 01:36:15;;;;;;;;;;;18.60;82.00;;;;;;5069394;28;19995;-66
2022/09/09 01:38:40;;;;;;;;;;;18.60;82.10;;;;;;5068473;28;19950;-66
2022/09/09 01:41:06;;;;;;;;;;;18.60;82.20;;;;;;5067430;28;19959;-66
2022/09/09 01:43:32;;;;;;;;;;;18.60;82.30;;;;;;5068975;28;19928;-66
2022/09/09 01:46:00;;;;;;;;;;;18.50;82.20;;;;;;5069349;28;19919;-66
2022/09/09 01:48:25;;;;;;;;;;;18.60;82.10;;;;;;5068762;28;20061;-66
2022/09/09 01:50:51;;;;;;;;;;;18.50;82.00;;;;;;5067917;28;20007;-66
2022/09/09 01:53:18;;;;;;;;;;;18.50;82.20;;;;;;5068506;28;20503;-66
2022/09/09 01:56:04;;;;;;;;;;;18.50;81.90;;;;;;5066749;28;20428;-66
2022/09/09 01:58:35;;;;;;;;;;;18.50;81.90;;;;;;5066014;28;20266;-66
2022/09/09 02:01:19;;;;;;;;;;;18.50;81.90;;;;;;5068354;28;19961;-66
2022/09/09 02:03:48;;;;;;;;;;;18.50;81.90;;;;;;5068793;28;20003;-66
2022/09/09 02:06:19;;;;;;;;;;;18.40;81.90;;;;;;5065942;28;19912;-66
2022/09/09 02:08:44;;;;;;;;;;;18.40;82.00;;;;;;5067435;28;20284;-66
2022/09/09 02:11:14;;;;;;;;;;;18.40;82.10;;;;;;5068072;28;19920;-66
2022/09/09 02:13:41;;;;;;;;;;;18.40;82.20;;;;;;5067938;28;19990;-66
2022/09/09 02:16:06;;;;;;;;;;;18.40;82.10;;;;;;5068658;28;19912;-66
2022/09/09 02:18:36;;;;;;;;;;;18.40;82.10;;;;;;5068060;28;19920;-66
2022/09/09 02:21:02;;;;;;;;;;;18.40;82.20;;;;;;5066965;28;19912;-66
2022/09/09 02:23:28;;;;;;;;;;;18.40;82.30;;;;;;5068088;28;20385;-66
2022/09/09 02:25:55;;;;;;;;;;;18.40;82.30;;;;;;5060877;28;19916;-66
2022/09/09 02:28:23;;;;;;;;;;;18.40;82.30;;;;;;5062509;28;19913;-66
2022/09/09 02:30:54;;;;;;;;;;;18.30;82.30;;;;;;5066701;28;19916;-66
2022/09/09 02:33:28;;;;;;;;;;;18.30;82.30;;;;;;5068080;28;19916;-66
2022/09/09 02:35:56;;;;;;;;;;;18.30;82.40;;;;;;5067363;28;19917;-66
2022/09/09 02:38:25;;;;;;;;;;;18.30;82.40;;;;;;5068016;28;19917;-66
2022/09/09 02:40:50;;;;;;;;;;;18.30;82.50;;;;;;5067770;28;19916;-66
2022/09/09 02:43:16;;;;;;;;;;;18.30;82.50;;;;;;5067929;28;19931;-66
2022/09/09 02:45:50;;;;;;;;;;;18.30;82.50;;;;;;5067691;28;20270;-66
2022/09/09 02:48:25;;;;;;;;;;;18.30;82.50;;;;;;5067988;28;19977;-66
2022/09/09 02:50:54;;;;;;;;;;;18.30;82.40;;;;;;5067768;28;19913;-66
2022/09/09 02:53:49;;;;;;;;;;;18.30;82.50;;;;;;5067252;28;19965;-66
2022/09/09 02:56:15;;;;;;;;;;;18.30;82.60;;;;;;5050230;28;20000;-66
2022/09/09 02:58:41;;;;;;;;;;;18.30;82.70;;;;;;5067729;28;20011;-66
2022/09/09 03:01:08;;;;;;;;;;;18.30;82.70;;;;;;5067675;28;20000;-66
2022/09/09 03:03:34;;;;;;;;;;;18.30;82.70;;;;;;5067072;28;19917;-66
2022/09/09 03:06:00;;;;;;;;;;;18.20;82.70;;;;;;5067135;28;19920;-66
2022/09/09 03:08:27;;;;;;;;;;;18.20;82.80;;;;;;5067736;28;20319;-66
2022/09/09 03:10:54;;;;;;;;;;;18.20;82.70;;;;;;5067591;28;20679;-66
2022/09/09 03:13:19;;;;;;;;;;;18.20;82.80;;;;;;5067640;28;19936;-66
2022/09/09 03:15:45;;;;;;;;;;;18.20;82.80;;;;;;5066141;28;19948;-66
2022/09/09 03:18:10;;;;;;;;;;;18.20;82.70;;;;;;5067602;28;20239;-66
2022/09/09 03:20:35;;;;;;;;;;;18.20;82.80;;;;;;5067135;28;19986;-66
2022/09/09 03:23:02;;;;;;;;;;;18.20;82.80;;;;;;5067251;28;20265;-66
2022/09/09 03:25:28;;;;;;;;;;;18.20;82.90;;;;;;5066983;28;19916;-66
2022/09/09 03:27:54;;;;;;;;;;;18.20;82.80;;;;;;5067199;28;19918;-66
2022/09/09 03:30:20;;;;;;;;;;;18.10;82.80;;;;;;5067485;28;19947;-66
2022/09/09 03:32:46;;;;;;;;;;;18.10;82.90;;;;;;5066904;28;19916;-66
2022/09/09 03:35:11;;;;;;;;;;;18.10;82.80;;;;;;5067146;28;19923;-66
2022/09/09 03:37:38;;;;;;;;;;;18.10;82.90;;;;;;5066704;28;20007;-66
2022/09/09 03:40:04;;;;;;;;;;;18.10;82.80;;;;;;5048301;28;19913;-66
2022/09/09 03:42:30;;;;;;;;;;;18.10;82.90;;;;;;5065269;28;19931;-66
2022/09/09 03:44:57;;;;;;;;;;;18.10;82.80;;;;;;5064886;28;19977;-66
2022/09/09 03:47:23;;;;;;;;;;;18.10;83.00;;;;;;5062812;28;19934;-66
2022/09/09 03:49:48;;;;;;;;;;;18.10;83.00;;;;;;5067020;28;20269;-66
2022/09/09 03:52:14;;;;;;;;;;;18.10;83.00;;;;;;5066413;28;20001;-66
2022/09/09 03:54:41;;;;;;;;;;;18.10;83.10;;;;;;5066637;28;19987;-66
2022/09/09 03:57:06;;;;;;;;;;;18.10;83.10;;;;;;5066706;28;20600;-66
2022/09/09 03:59:32;;;;;;;;;;;18.10;83.10;;;;;;5065153;28;19912;-66
2022/09/09 04:01:58;;;;;;;;;;;18.00;83.00;;;;;;5065836;28;19939;-66
2022/09/09 04:04:25;;;;;;;;;;;18.00;83.00;;;;;;5066598;28;19924;-66
2022/09/09 04:06:51;;;;;;;;;;;18.00;83.10;;;;;;5066138;28;19987;-67
2022/09/09 04:09:17;;;;;;;;;;;18.00;83.10;;;;;;5066791;28;20430;-66
2022/09/09 04:11:42;;;;;;;;;;;18.00;83.10;;;;;;5065900;28;20373;-66
2022/09/09 04:14:08;;;;;;;;;;;18.00;83.20;;;;;;5066072;28;19958;-66
2022/09/09 04:16:36;;;;;;;;;;;18.00;83.10;;;;;;5066279;28;20222;-66
2022/09/09 04:19:04;;;;;;;;;;;18.00;83.10;;;;;;5066169;28;19913;-66
2022/09/09 04:21:29;;;;;;;;;;;18.00;83.10;;;;;;5047648;28;19912;-66
2022/09/09 04:23:55;;;;;;;;;;;18.00;83.20;;;;;;5065893;28;19962;-66
2022/09/09 04:26:20;;;;;;;;;;;18.00;83.20;;;;;;5065995;28;20407;-66
2022/09/09 04:28:46;;;;;;;;;;;18.00;83.30;;;;;;5065917;28;19912;-66
2022/09/09 04:31:17;;;;;;;;;;;18.00;83.20;;;;;;5047787;28;20376;-66
2022/09/09 04:33:43;;;;;;;;;;;18.00;83.20;;;;;;5065707;28;19963;-66
2022/09/09 04:36:09;;;;;;;;;;;18.00;83.30;;;;;;5064669;28;19956;-66
2022/09/09 04:38:34;;;;;;;;;;;18.00;83.30;;;;;;5065967;28;19966;-66
2022/09/09 04:41:00;;;;;;;;;;;18.00;83.30;;;;;;5065599;28;19916;-66
2022/09/09 04:43:25;;;;;;;;;;;18.00;83.40;;;;;;5065466;28;19927;-66
2022/09/09 04:45:51;;;;;;;;;;;18.00;83.30;;;;;;5066031;28;19913;-66
2022/09/09 04:48:17;;;;;;;;;;;17.90;83.30;;;;;;5065937;28;20007;-66
2022/09/09 04:50:42;;;;;;;;;;;17.90;83.40;;;;;;5065424;28;20577;-66
2022/09/09 04:53:07;;;;;;;;;;;17.90;83.30;;;;;;5065038;28;20254;-66
2022/09/09 04:55:34;;;;;;;;;;;17.90;83.40;;;;;;5065299;28;19924;-66
2022/09/09 04:58:07;;;;;;;;;;;17.90;83.20;;;;;;5065434;28;19928;-66
2022/09/09 05:00:33;;;;;;;;;;;17.90;83.40;;;;;;5065173;28;19912;-66
2022/09/09 05:03:02;;;;;;;;;;;17.90;83.50;;;;;;5062670;28;19990;-66
2022/09/09 05:05:28;;;;;;;;;;;17.90;83.50;;;;;;5065598;28;19912;-66
2022/09/09 05:07:53;;;;;;;;;;;17.90;83.40;;;;;;5066106;28;19919;-66
2022/09/09 05:10:19;;;;;;;;;;;17.90;83.50;;;;;;5065045;28;19921;-66
2022/09/09 05:12:52;;;;;;;;;;;17.90;83.50;;;;;;5047357;28;19912;-66
2022/09/09 05:15:18;;;;;;;;;;;17.90;83.60;;;;;;5065618;28;19912;-66
2022/09/09 05:17:43;;;;;;;;;;;17.90;83.50;;;;;;5065147;28;19919;-66
2022/09/09 05:20:09;;;;;;;;;;;17.90;83.60;;;;;;5065631;28;20023;-66
2022/09/09 05:22:34;;;;;;;;;;;17.90;83.70;;;;;;5065115;28;19987;-67
2022/09/09 05:25:01;;;;;;;;;;;17.90;83.50;;;;;;5065306;28;19917;-66
2022/09/09 05:27:26;;;;;;;;;;;17.90;83.90;;;;;;5065608;28;19913;-66
2022/09/09 05:29:52;;;;;;;;;;;17.90;83.60;;;;;;5064945;28;19934;-66
2022/09/09 05:32:17;;;;;;;;;;;17.90;83.60;;;;;;5064989;28;19908;-66
2022/09/09 05:34:43;;;;;;;;;;;17.90;83.60;;;;;;5065123;28;19912;-66
2022/09/09 05:37:08;;;;;;;;;;;17.90;83.70;;;;;;5065447;28;20007;-66
2022/09/09 05:39:36;;;;;;;;;;;17.90;83.70;;;;;;5065144;28;20023;-66
2022/09/09 05:42:03;;;;;;;;;;;17.90;83.70;;;;;;5064964;28;19959;-66
2022/09/09 05:44:29;;;;;;;;;;;17.90;83.60;;;;;;5064741;28;19916;-66
2022/09/09 05:46:54;;;;;;;;;;;17.90;83.70;;;;;;5065132;28;19919;-66
2022/09/09 05:49:21;;;;;;;;;;;17.90;83.60;;;;;;5065014;28;20326;-66
2022/09/09 05:51:47;;;;;;;;;;;17.90;83.60;;;;;;5061752;28;19935;-66
2022/09/09 05:54:15;;;;;;;;;;;17.90;83.70;;;;;;5065317;28;19917;-66
2022/09/09 05:56:41;;;;;;;;;;;17.90;83.70;;;;;;5065087;28;20632;-66
2022/09/09 05:59:06;;;;;;;;;;;17.90;83.60;;;;;;5064938;28;19922;-66
2022/09/09 06:01:33;;;;;;;;;;;17.90;83.60;;;;;;5063977;28;19920;-66
2022/09/09 06:03:59;;;;;;;;;;;17.90;83.60;;;;;;5066414;28;20364;-66
2022/09/09 06:06:30;;;;;;;;;;;18.00;83.60;;;;;;5068941;28;19966;-66
2022/09/09 06:08:59;;;;;;;;;;;17.90;83.60;;;;;;5068644;28;19919;-66
2022/09/09 06:11:26;;;;;;;;;;;17.90;83.60;;;;;;5068420;28;20258;-66
2022/09/09 06:13:53;;;;;;;;;;;18.00;83.60;;;;;;5068580;28;19954;-66
2022/09/09 06:16:19;;;;;;;;;;;18.00;83.60;;;;;;5068740;28;19912;-66
2022/09/09 06:18:45;;;;;;;;;;;18.00;83.60;;;;;;5068399;28;20286;-66
2022/09/09 06:21:21;;;;;;;;;;;18.00;83.60;;;;;;5068221;28;19912;-66
2022/09/09 06:23:51;;;;;;;;;;;18.00;83.60;;;;;;5068190;28;19998;-66
2022/09/09 06:26:19;;;;;;;;;;;18.00;83.70;;;;;;5068221;28;19912;-66
2022/09/09 06:28:49;;;;;;;;;;;18.00;83.50;;;;;;5068285;28;19912;-66
2022/09/09 06:31:21;;;;;;;;;;;18.10;83.60;;;;;;5067892;28;19912;-66
2022/09/09 06:33:47;;;;;;;;;;;18.10;83.60;;;;;;5067393;28;20285;-66
2022/09/09 06:36:14;;;;;;;;;;;18.10;83.60;;;;;;5068209;28;19919;-66
2022/09/09 06:38:40;;;;;;;;;;;18.10;83.50;;;;;;5068135;28;19920;-66
2022/09/09 06:41:06;;;;;;;;;;;18.10;83.40;;;;;;5067908;28;19966;-66
2022/09/09 06:43:31;;;;;;;;;;;18.10;83.50;;;;;;5067913;28;19920;-66
2022/09/09 06:46:01;;;;;;;;;;;18.10;83.40;;;;;;5067760;28;20011;-66
2022/09/09 06:48:27;;;;;;;;;;;18.10;83.50;;;;;;5067790;28;20289;-66
2022/09/09 06:51:00;;;;;;;;;;;18.20;83.60;;;;;;5068157;28;19912;-66
2022/09/09 06:53:27;;;;;;;;;;;18.20;83.40;;;;;;5068161;28;19909;-66
2022/09/09 06:55:52;;;;;;;;;;;18.20;83.20;;;;;;5067769;28;19917;-66
2022/09/09 06:58:18;;;;;;;;;;;18.20;83.30;;;;;;5067730;28;20397;-66
2022/09/09 07:00:44;;;;;;;;;;;18.30;83.50;;;;;;5067995;28;20011;-66
2022/09/09 07:03:10;;;;;;;;;;;18.30;83.30;;;;;;5063013;28;19932;-66
2022/09/09 07:05:36;;;;;;;;;;;18.30;83.30;;;;;;5067749;28;19919;-66
2022/09/09 07:08:02;;;;;;;;;;;18.30;83.30;;;;;;5067738;28;19912;-66
2022/09/09 07:10:28;;;;;;;;;;;18.30;83.30;;;;;;5067358;28;19924;-66
2022/09/09 07:12:54;;;;;;;;;;;18.30;83.10;;;;;;5049120;28;19970;-66
2022/09/09 07:15:21;;;;;;;;;;;18.30;83.10;;;;;;5066913;28;19916;-66
2022/09/09 07:17:47;;;;;;;;;;;18.40;83.20;;;;;;5049493;28;20385;-66
2022/09/09 07:20:14;;;;;;;;;;;18.40;83.00;;;;;;5067505;28;19970;-66
2022/09/09 07:22:40;;;;;;;;;;;18.40;83.10;;;;;;5067099;28;19921;-66
2022/09/09 07:25:06;;;;;;;;;;;18.40;83.00;;;;;;5067309;28;19917;-66
2022/09/09 07:27:31;;;;;;;;;;;18.40;83.10;;;;;;5067352;28;19940;-66
2022/09/09 07:29:57;;;;;;;;;;;18.40;83.00;;;;;;5067278;28;19951;-66
2022/09/09 07:32:22;;;;;;;;;;;18.40;82.90;;;;;;5066913;28;19947;-66
2022/09/09 07:34:50;;;;;;;;;;;18.40;83.00;;;;;;5067420;28;19913;-66
2022/09/09 07:37:15;;;;;;;;;;;18.40;83.00;;;;;;5067224;28;19916;-66
2022/09/09 07:39:41;;;;;;;;;;;18.40;82.90;;;;;;5067212;28;19913;-65
2022/09/09 07:42:08;;;;;;;;;;;18.40;82.90;;;;;;5067110;28;20376;-66
2022/09/09 07:44:35;;;;;;;;;;;18.50;83.00;;;;;;5066856;28;19920;-66
2022/09/09 07:47:01;;;;;;;;;;;18.50;82.90;;;;;;5067071;28;19969;-66
2022/09/09 07:49:27;;;;;;;;;;;18.50;82.80;;;;;;5063984;28;20004;-66
2022/09/09 07:51:52;;;;;;;;;;;18.50;82.90;;;;;;5066585;28;20336;-66
2022/09/09 07:54:23;;;;;;;;;;;18.50;82.70;;;;;;5066709;28;19920;-66
2022/09/09 07:56:49;;;;;;;;;;;18.50;82.70;;;;;;5065964;28;19912;-66
2022/09/09 07:59:14;;;;;;;;;;;18.60;82.70;;;;;;5066765;28;19973;-66
2022/09/09 08:01:45;;;;;;;;;;;18.60;82.90;;;;;;5066243;28;20026;-65
2022/09/09 08:04:15;;;;;;;;;;;18.60;82.60;;;;;;5065817;28;19916;-66
2022/09/09 08:06:42;;;;;;;;;;;18.60;82.60;;;;;;5066898;28;20281;-65
2022/09/09 08:09:08;;;;;;;;;;;18.60;82.70;;;;;;5066573;28;19916;-66
2022/09/09 08:11:35;;;;;;;;;;;18.60;82.70;;;;;;5066232;28;19951;-66
2022/09/09 08:14:01;;;;;;;;;;;18.60;82.60;;;;;;5066340;28;19915;-65
2022/09/09 08:16:29;;;;;;;;;;;18.60;82.60;;;;;;5066334;28;19913;-66
2022/09/09 08:18:55;;;;;;;;;;;18.60;82.60;;;;;;5066366;28;20003;-66
2022/09/09 08:21:22;;;;;;;;;;;18.60;82.70;;;;;;5066260;28;20456;-66
2022/09/09 08:23:48;;;;;;;;;;;18.60;82.40;;;;;;5065971;28;19920;-66
2022/09/09 08:26:15;;;;;;;;;;;18.60;82.60;;;;;;5066271;28;20431;-66
2022/09/09 08:28:41;;;;;;;;;;;18.70;82.30;;;;;;5063330;28;19917;-66
2022/09/09 08:31:06;;;;;;;;;;;18.70;82.10;;;;;;5063499;28;20505;-66
2022/09/09 08:33:33;;;;;;;;;;;18.80;82.00;;;;;;5065913;28;20044;-66
2022/09/09 08:35:58;;;;;;;;;;;18.80;82.00;;;;;;5065748;28;20508;-66
2022/09/09 08:38:24;;;;;;;;;;;18.80;82.10;;;;;;5066019;28;19919;-66
2022/09/09 08:40:53;;;;;;;;;;;18.90;82.00;;;;;;5065609;28;20771;-66
2022/09/09 08:43:21;;;;;;;;;;;18.90;82.00;;;;;;5065670;28;19974;-66
2022/09/09 08:46:01;;;;;;;;;;;18.90;81.80;;;;;;5065812;28;19922;-66
2022/09/09 08:49:02;;;;;;;;;;;19.00;81.80;;;;;;5065795;28;20314;-66
2022/09/09 08:51:29;;;;;;;;;;;18.90;81.60;;;;;;4983358;28;20638;-66
2022/09/09 08:53:57;;;;;;;;;;;19.00;81.60;;;;;;5049286;28;20319;-66
2022/09/09 08:56:24;;;;;;;;;;;19.00;81.40;;;;;;5065712;28;19978;-66
2022/09/09 08:58:50;;;;;;;;;;;19.10;81.50;;;;;;5047431;28;19917;-66
2022/09/09 09:01:16;;;;;;;;;;;19.10;81.40;;;;;;5065512;28;19913;-66
2022/09/09 09:04:02;;;;;;;;;;;19.10;81.20;;;;;;5065429;28;19993;-66
2022/09/09 09:06:30;;;;;;;;;;;19.20;81.10;;;;;;5066053;28;19908;-66
2022/09/09 09:08:56;;;;;;;;;;;19.20;80.80;;;;;;5064690;28;19912;-66
2022/09/09 09:11:22;;;;;;;;;;;19.30;80.90;;;;;;5064376;28;19966;-67
2022/09/09 09:13:59;;;;;;;;;;;19.40;80.70;;;;;;5062273;28;19944;-66
2022/09/09 09:16:34;;;;;;;;;;;19.50;80.50;;;;;;5064701;28;20038;-66
2022/09/09 09:18:59;;;;;;;;;;;19.40;80.30;;;;;;5059783;28;20323;-66
2022/09/09 09:21:36;;;;;;;;;;;19.40;80.10;;;;;;5063355;28;19917;-66
2022/09/09 09:24:04;;;;;;;;;;;19.50;80.50;;;;;;5063704;28;19966;-66
2022/09/09 09:26:34;;;;;;;;;;;19.50;80.10;;;;;;5064864;28;19943;-66
2022/09/09 09:29:03;;;;;;;;;;;19.50;80.20;;;;;;5065104;28;19997;-66
2022/09/09 09:31:29;;;;;;;;;;;19.50;80.20;;;;;;5065001;28;19984;-66
2022/09/09 09:33:55;;;;;;;;;;;19.50;80.20;;;;;;5065192;28;19951;-66
2022/09/09 09:36:23;;;;;;;;;;;19.50;80.10;;;;;;5065591;28;19913;-66
2022/09/09 09:38:53;;;;;;;;;;;19.50;80.20;;;;;;5066623;28;19923;-65
2022/09/09 09:41:29;;;;;;;;;;;19.50;80.10;;;;;;5069178;28;19939;-66
2022/09/09 09:43:54;;;;;;;;;;;19.50;80.20;;;;;;5065604;28;19920;-66
2022/09/09 09:46:25;;;;;;;;;;;19.50;80.10;;;;;;5069062;28;19918;-66
2022/09/09 09:48:58;;;;;;;;;;;19.60;80.20;;;;;;5069285;28;19908;-66
2022/09/09 09:51:24;;;;;;;;;;;19.60;80.00;;;;;;5069281;28;19912;-66
2022/09/09 09:53:52;;;;;;;;;;;19.60;80.00;;;;;;5068750;28;19947;-66
2022/09/09 09:56:25;;;;;;;;;;;19.60;80.10;;;;;;5064912;28;19947;-66
2022/09/09 09:58:51;;;;;;;;;;;19.70;79.80;;;;;;5069244;28;19913;-66
2022/09/09 10:01:24;;;;;;;;;;;19.80;79.70;;;;;;5068397;28;19919;-66
2022/09/09 10:03:51;;;;;;;;;;;19.80;79.50;;;;;;5069399;28;20816;-66
2022/09/09 10:06:17;;;;;;;;;;;19.80;79.20;;;;;;5069045;28;20014;-66
2022/09/09 10:08:46;;;;;;;;;;;19.90;79.30;;;;;;5068702;28;19930;-66
2022/09/09 10:11:13;;;;;;;;;;;20.00;79.00;;;;;;5068403;28;20452;-66
2022/09/09 10:13:58;;;;;;;;;;;20.10;78.90;;;;;;5068592;28;19986;-66
2022/09/09 10:16:30;;;;;;;;;;;20.10;78.80;;;;;;5050541;28;19920;-66
2022/09/09 10:19:15;;;;;;;;;;;20.20;78.70;;;;;;5067534;28;19917;-65
2022/09/09 10:21:59;;;;;;;;;;;20.10;78.60;;;;;;5067299;28;19912;-66
2022/09/09 10:24:45;;;;;;;;;;;20.20;78.60;;;;;;5068062;28;19916;-66
2022/09/09 10:27:20;;;;;;;;;;;20.20;78.70;;;;;;5068559;28;20351;-66
2022/09/09 10:30:17;;;;;;;;;;;20.20;78.70;;;;;;5068184;28;19912;-66
2022/09/09 10:33:13;;;;;;;;;;;20.20;78.40;;;;;;5023042;28;19930;-66
2022/09/09 10:35:48;;;;;;;;;;;20.30;77.80;;;;;;4996229;28;19913;-66
2022/09/09 10:38:13;;;;;;;;;;;20.40;77.80;;;;;;5068304;28;20297;-65
2022/09/09 10:40:44;;;;;;;;;;;20.50;77.10;;;;;;5067507;28;19912;-65
2022/09/09 10:43:28;;;;;;;;;;;20.50;77.30;;;;;;5068246;28;19920;-66
2022/09/09 10:45:59;;;;;;;;;;;20.50;77.50;;;;;;5068176;28;19913;-66
2022/09/09 10:48:30;;;;;;;;;;;20.50;77.30;;;;;;5066899;28;19934;-66
2022/09/09 10:51:18;;;;;;;;;;;20.60;77.40;;;;;;5064529;28;19924;-66
2022/09/09 10:54:03;;;;;;;;;;;20.60;77.00;;;;;;5063462;28;20548;-66
2022/09/09 10:56:29;;;;;;;;;;;20.70;77.10;;;;;;5065820;28;19947;-67
2022/09/09 10:59:04;;;;;;;;;;;20.70;76.60;;;;;;5067669;28;19966;-66
2022/09/09 11:01:32;;;;;;;;;;;20.80;76.40;;;;;;5049228;28;20358;-65
2022/09/09 11:04:04;;;;;;;;;;;21.00;76.20;;;;;;5067624;28;19924;-65
2022/09/09 11:06:34;;;;;;;;;;;21.10;75.70;;;;;;5067670;28;19921;-65
2022/09/09 11:09:01;;;;;;;;;;;21.10;75.60;;;;;;5067697;28;19916;-65
2022/09/09 11:11:31;;;;;;;;;;;21.10;75.80;;;;;;5067461;28;19913;-65
2022/09/09 11:14:02;;;;;;;;;;;21.10;75.50;;;;;;5067629;28;19912;-65
2022/09/09 11:16:36;;;;;;;;;;;21.10;75.80;;;;;;5066985;28;19952;-65
2022/09/09 11:19:11;;;;;;;;;;;21.10;75.50;;;;;;5061428;28;19920;-65
2022/09/09 11:21:45;;;;;;;;;;;21.10;75.40;;;;;;5067151;28;19928;-65
2022/09/09 11:24:14;;;;;;;;;;;21.10;75.60;;;;;;5067408;28;19913;-65
2022/09/09 11:26:55;;;;;;;;;;;21.20;75.60;;;;;;5067380;28;19916;-67
2022/09/09 11:29:44;;;;;;;;;;;21.20;75.30;;;;;;5067371;28;19908;-66
2022/09/09 11:32:28;;;;;;;;;;;21.20;74.60;;;;;;5011415;28;19943;-66
2022/09/09 11:35:23;;;;;;;;;;;21.30;75.00;;;;;;5067557;28;19912;-65
2022/09/09 11:38:01;;;;;;;;;;;21.30;75.00;;;;;;5049207;28;19917;-66
2022/09/09 11:40:27;;;;;;;;;;;21.40;74.80;;;;;;5066068;28;19912;-66
2022/09/09 11:43:05;;;;;;;;;;;21.30;74.90;;;;;;5065705;28;19953;-66
2022/09/09 11:45:33;;;;;;;;;;;21.30;75.00;;;;;;5066187;28;19920;-66
2022/09/09 11:48:00;;;;;;;;;;;21.30;75.00;;;;;;5064813;28;19912;-66
2022/09/09 11:50:25;;;;;;;;;;;21.30;75.00;;;;;;5065232;28;19913;-66
2022/09/09 11:52:53;;;;;;;;;;;21.30;74.80;;;;;;5066252;28;19928;-66
2022/09/09 11:55:31;;;;;;;;;;;21.40;75.70;;;;;;5065426;28;19999;-66
2022/09/09 11:58:01;;;;;;;;;;;21.30;75.00;;;;;;5066173;28;19913;-66
2022/09/09 12:00:37;;;;;;;;;;;21.30;75.10;;;;;;5065795;28;19938;-66
2022/09/09 12:03:03;;;;;;;;;;;21.30;75.30;;;;;;5065465;28;19943;-66
2022/09/09 12:05:55;;;;;;;;;;;21.20;75.30;;;;;;5066298;28;19923;-66
2022/09/09 12:08:25;;;;;;;;;;;21.20;76.10;;;;;;5063025;28;19923;-66
2022/09/09 12:10:55;;;;;;;;;;;21.20;75.60;;;;;;5066243;28;19916;-66
2022/09/09 12:13:23;;;;;;;;;;;21.20;75.20;;;;;;5066597;28;19923;-66
2022/09/09 12:15:50;;;;;;;;;;;21.20;75.50;;;;;;5066458;28;19948;-66
2022/09/09 12:18:25;;;;;;;;;;;21.10;75.30;;;;;;5066254;28;19913;-66
2022/09/09 12:21:07;;;;;;;;;;;21.20;75.40;;;;;;5064079;28;20388;-66
2022/09/09 12:23:51;;;;;;;;;;;21.10;75.60;;;;;;5066009;28;20384;-66
2022/09/09 12:26:23;;;;;;;;;;;21.20;75.60;;;;;;5065962;28;20482;-66
2022/09/09 12:29:07;;;;;;;;;;;21.20;75.50;;;;;;5066191;28;20392;-66
2022/09/09 12:31:38;;;;;;;;;;;21.30;75.40;;;;;;5065564;28;19946;-65
2022/09/09 12:34:15;;;;;;;;;;;21.40;75.00;;;;;;5066085;28;19913;-66
2022/09/09 12:36:44;;;;;;;;;;;21.50;74.90;;;;;;5063725;28;19916;-66
2022/09/09 12:39:30;;;;;;;;;;;21.50;74.80;;;;;;5066176;28;20515;-66
2022/09/09 12:41:57;;;;;;;;;;;21.50;75.60;;;;;;5051321;28;19919;-66
2022/09/09 12:44:23;;;;;;;;;;;21.50;75.20;;;;;;5065946;28;20024;-66
2022/09/09 12:46:49;;;;;;;;;;;21.50;75.30;;;;;;5066096;28;19995;-66
2022/09/09 12:49:34;;;;;;;;;;;21.40;75.30;;;;;;5063922;28;20008;-66
2022/09/09 12:52:15;;;;;;;;;;;21.40;75.40;;;;;;5065567;28;19977;-66
2022/09/09 12:54:43;;;;;;;;;;;21.40;75.60;;;;;;5048164;28;20317;-66
2022/09/09 12:57:11;;;;;;;;;;;21.30;75.70;;;;;;5065985;28;19912;-66
2022/09/09 12:59:39;;;;;;;;;;;21.30;75.70;;;;;;5065612;28;19931;-66
2022/09/09 13:02:24;;;;;;;;;;;21.40;75.80;;;;;;5062367;28;19913;-66
2022/09/09 13:04:50;;;;;;;;;;;21.40;75.80;;;;;;5065694;28;20397;-66
2022/09/09 13:07:17;;;;;;;;;;;21.40;75.60;;;;;;5065838;28;19958;-66
2022/09/09 13:09:43;;;;;;;;;;;21.50;75.50;;;;;;5065862;28;19913;-66
2022/09/09 13:12:17;;;;;;;;;;;21.60;75.60;;;;;;5065271;28;19917;-66
2022/09/09 13:14:46;;;;;;;;;;;21.60;75.40;;;;;;5063912;28;19913;-66
2022/09/09 13:17:17;;;;;;;;;;;21.60;75.30;;;;;;5064869;28;20041;-66
2022/09/09 13:19:45;;;;;;;;;;;21.60;75.40;;;;;;5061632;28;19912;-66
2022/09/09 13:22:30;;;;;;;;;;;21.60;75.50;;;;;;5060801;28;19919;-66
2022/09/09 13:25:03;;;;;;;;;;;21.60;75.60;;;;;;5065325;28;20011;-66
2022/09/09 13:27:38;;;;;;;;;;;21.60;75.70;;;;;;5061685;28;19984;-67
2022/09/09 13:30:22;;;;;;;;;;;21.60;75.70;;;;;;5064741;28;19938;-66
2022/09/09 13:33:00;;;;;;;;;;;21.70;75.60;;;;;;5065179;28;19912;-66
2022/09/09 13:35:26;;;;;;;;;;;21.70;75.70;;;;;;5065952;28;19920;-66
2022/09/09 13:37:51;;;;;;;;;;;21.70;75.70;;;;;;5065147;28;19913;-66
2022/09/09 13:40:18;;;;;;;;;;;21.70;75.60;;;;;;5064732;28;19912;-66
2022/09/09 13:42:44;;;;;;;;;;;21.70;75.80;;;;;;5063517;28;19913;-66
2022/09/09 13:45:17;;;;;;;;;;;21.60;76.00;;;;;;5064986;28;19924;-66
2022/09/09 13:47:43;;;;;;;;;;;21.60;76.10;;;;;;5062919;28;19922;-66
2022/09/09 13:50:20;;;;;;;;;;;21.50;76.20;;;;;;5064122;28;19908;-66
2022/09/09 13:52:51;;;;;;;;;;;21.50;76.30;;;;;;5060068;28;20284;-66
2022/09/09 13:55:17;;;;;;;;;;;21.40;76.40;;;;;;5065091;28;20003;-66
2022/09/09 13:57:55;;;;;;;;;;;21.40;76.40;;;;;;5065348;28;19912;-66
2022/09/09 14:00:20;;;;;;;;;;;21.30;76.60;;;;;;5045829;28;19924;-66
2022/09/09 14:02:47;;;;;;;;;;;21.30;76.60;;;;;;5046470;28;19920;-66
2022/09/09 14:05:12;;;;;;;;;;;21.30;76.80;;;;;;5060108;28;19921;-66
2022/09/09 14:07:39;;;;;;;;;;;21.30;76.70;;;;;;5058801;28;19919;-66
2022/09/09 14:10:06;;;;;;;;;;;21.30;76.70;;;;;;5057984;28;19913;-66
2022/09/09 14:12:31;;;;;;;;;;;21.40;76.60;;;;;;5064555;28;19958;-66
2022/09/09 14:14:57;;;;;;;;;;;21.40;76.70;;;;;;5065125;28;19920;-66
2022/09/09 14:17:22;;;;;;;;;;;21.50;76.80;;;;;;5065145;28;19909;-66
2022/09/09 14:19:48;;;;;;;;;;;21.50;76.60;;;;;;5060017;28;19982;-66
2022/09/09 14:22:14;;;;;;;;;;;21.70;76.50;;;;;;5064120;28;19912;-66
2022/09/09 14:24:40;;;;;;;;;;;21.80;76.50;;;;;;5046299;28;20563;-66
2022/09/09 14:27:06;;;;;;;;;;;21.90;76.10;;;;;;5061050;28;19920;-66
2022/09/09 14:29:33;;;;;;;;;;;21.90;75.90;;;;;;5049485;28;19916;-66